sensor_id;sensor_type;location;lat;lon;timestamp;P1;durP1;ratioP1;P2;durP2;ratioP2
13712;SDS011;6928;50.546;7.120;2024-01-30T00:00:05;13.43;;;6.97;;
13712;SDS011;6928;50.546;7.120;2024-01-30T00:02:34;8.88;;;6.00;;
13712;SDS011;6928;50.546;7.120;2024-01-30T00:05:02;13.20;;;7.38;;
13712;SDS011;6928;50.546;7.120;2024-01-30T00:07:30;10.65;;;6.95;;
13712;SDS011;6928;50.546;7.120;2024-01-30T00:09:57;10.65;;;6.40;;
13712;SDS011;6928;50.546;7.120;2024-01-30T00:12:25;11.90;;;6.35;;
13712;SDS011;6928;50.546;7.120;2024-01-30T00:14:52;10.40;;;7.03;;
13712;SDS011;6928;50.546;7.120;2024-01-30T00:17:19;11.48;;;7.00;;
13712;SDS011;6928;50.546;7.120;2024-01-30T00:19:47;12.52;;;6.50;;
13712;SDS011;6928;50.546;7.120;2024-01-30T00:22:15;11.52;;;6.57;;
13712;SDS011;6928;50.546;7.120;2024-01-30T00:24:43;12.45;;;6.70;;
13712;SDS011;6928;50.546;7.120;2024-01-30T00:27:10;12.00;;;7.18;;
13712;SDS011;6928;50.546;7.120;2024-01-30T00:29:37;8.98;;;6.15;;
13712;SDS011;6928;50.546;7.120;2024-01-30T00:32:05;12.45;;;6.97;;
13712;SDS011;6928;50.546;7.120;2024-01-30T00:34:33;7.95;;;6.28;;
13712;SDS011;6928;50.546;7.120;2024-01-30T00:37:00;13.13;;;6.57;;
13712;SDS011;6928;50.546;7.120;2024-01-30T00:39:28;10.55;;;5.65;;
13712;SDS011;6928;50.546;7.120;2024-01-30T00:41:55;8.00;;;5.88;;
13712;SDS011;6928;50.546;7.120;2024-01-30T00:44:23;10.65;;;6.38;;
13712;SDS011;6928;50.546;7.120;2024-01-30T00:46:50;10.55;;;5.78;;
13712;SDS011;6928;50.546;7.120;2024-01-30T00:49:17;12.15;;;5.82;;
13712;SDS011;6928;50.546;7.120;2024-01-30T00:51:45;11.82;;;6.45;;
13712;SDS011;6928;50.546;7.120;2024-01-30T00:54:13;10.60;;;5.68;;
13712;SDS011;6928;50.546;7.120;2024-01-30T00:56:41;9.32;;;5.25;;
13712;SDS011;6928;50.546;7.120;2024-01-30T00:59:08;10.10;;;5.60;;
13712;SDS011;6928;50.546;7.120;2024-01-30T01:01:35;9.15;;;5.75;;
13712;SDS011;6928;50.546;7.120;2024-01-30T01:04:02;9.68;;;6.00;;
13712;SDS011;6928;50.546;7.120;2024-01-30T01:06:30;10.68;;;6.47;;
13712;SDS011;6928;50.546;7.120;2024-01-30T01:08:57;9.93;;;5.68;;
13712;SDS011;6928;50.546;7.120;2024-01-30T01:11:24;8.27;;;5.18;;
13712;SDS011;6928;50.546;7.120;2024-01-30T01:13:52;9.52;;;5.32;;
13712;SDS011;6928;50.546;7.120;2024-01-30T01:16:19;9.52;;;5.93;;
13712;SDS011;6928;50.546;7.120;2024-01-30T01:18:49;9.07;;;4.97;;
13712;SDS011;6928;50.546;7.120;2024-01-30T01:21:22;9.80;;;5.65;;
13712;SDS011;6928;50.546;7.120;2024-01-30T01:23:49;9.88;;;5.07;;
13712;SDS011;6928;50.546;7.120;2024-01-30T01:26:16;8.80;;;5.38;;
13712;SDS011;6928;50.546;7.120;2024-01-30T01:28:43;10.70;;;5.68;;
13712;SDS011;6928;50.546;7.120;2024-01-30T01:31:12;15.27;;;5.97;;
13712;SDS011;6928;50.546;7.120;2024-01-30T01:33:38;10.60;;;5.88;;
13712;SDS011;6928;50.546;7.120;2024-01-30T01:36:05;12.43;;;4.93;;
13712;SDS011;6928;50.546;7.120;2024-01-30T01:38:33;7.38;;;5.28;;
13712;SDS011;6928;50.546;7.120;2024-01-30T01:41:01;8.65;;;5.25;;
13712;SDS011;6928;50.546;7.120;2024-01-30T01:43:28;9.55;;;5.50;;
13712;SDS011;6928;50.546;7.120;2024-01-30T01:45:56;10.75;;;5.03;;
13712;SDS011;6928;50.546;7.120;2024-01-30T01:48:24;8.60;;;5.10;;
13712;SDS011;6928;50.546;7.120;2024-01-30T01:50:52;9.90;;;5.63;;
13712;SDS011;6928;50.546;7.120;2024-01-30T01:53:19;9.52;;;5.53;;
13712;SDS011;6928;50.546;7.120;2024-01-30T01:55:46;8.95;;;5.32;;
13712;SDS011;6928;50.546;7.120;2024-01-30T01:58:14;8.50;;;5.07;;
13712;SDS011;6928;50.546;7.120;2024-01-30T02:00:41;9.27;;;5.43;;
13712;SDS011;6928;50.546;7.120;2024-01-30T02:03:09;12.75;;;6.25;;
13712;SDS011;6928;50.546;7.120;2024-01-30T02:05:39;9.38;;;5.10;;
13712;SDS011;6928;50.546;7.120;2024-01-30T02:08:08;9.55;;;5.47;;
13712;SDS011;6928;50.546;7.120;2024-01-30T02:10:35;8.48;;;5.15;;
13712;SDS011;6928;50.546;7.120;2024-01-30T02:13:02;8.50;;;5.32;;
13712;SDS011;6928;50.546;7.120;2024-01-30T02:15:29;11.05;;;6.10;;
13712;SDS011;6928;50.546;7.120;2024-01-30T02:17:56;10.27;;;4.90;;
13712;SDS011;6928;50.546;7.120;2024-01-30T02:20:23;8.30;;;4.60;;
13712;SDS011;6928;50.546;7.120;2024-01-30T02:22:53;8.85;;;5.13;;
13712;SDS011;6928;50.546;7.120;2024-01-30T02:25:29;8.85;;;5.07;;
13712;SDS011;6928;50.546;7.120;2024-01-30T02:27:57;6.95;;;4.85;;
13712;SDS011;6928;50.546;7.120;2024-01-30T02:30:23;10.70;;;5.65;;
13712;SDS011;6928;50.546;7.120;2024-01-30T02:32:49;12.85;;;5.50;;
13712;SDS011;6928;50.546;7.120;2024-01-30T02:35:16;8.57;;;5.57;;
13712;SDS011;6928;50.546;7.120;2024-01-30T02:37:43;7.93;;;5.35;;
13712;SDS011;6928;50.546;7.120;2024-01-30T02:40:11;8.23;;;5.22;;
13712;SDS011;6928;50.546;7.120;2024-01-30T02:42:39;8.68;;;4.80;;
13712;SDS011;6928;50.546;7.120;2024-01-30T02:45:07;8.50;;;5.55;;
13712;SDS011;6928;50.546;7.120;2024-01-30T02:47:35;9.50;;;4.63;;
13712;SDS011;6928;50.546;7.120;2024-01-30T02:50:02;8.90;;;4.97;;
13712;SDS011;6928;50.546;7.120;2024-01-30T02:52:30;8.98;;;4.95;;
13712;SDS011;6928;50.546;7.120;2024-01-30T02:54:57;12.52;;;4.85;;
13712;SDS011;6928;50.546;7.120;2024-01-30T02:57:25;10.75;;;5.03;;
13712;SDS011;6928;50.546;7.120;2024-01-30T02:59:52;10.48;;;5.53;;
13712;SDS011;6928;50.546;7.120;2024-01-30T03:02:18;7.32;;;5.28;;
13712;SDS011;6928;50.546;7.120;2024-01-30T03:04:45;6.53;;;4.75;;
13712;SDS011;6928;50.546;7.120;2024-01-30T03:07:13;11.23;;;5.45;;
13712;SDS011;6928;50.546;7.120;2024-01-30T03:09:41;8.60;;;4.90;;
13712;SDS011;6928;50.546;7.120;2024-01-30T03:12:08;7.00;;;4.57;;
13712;SDS011;6928;50.546;7.120;2024-01-30T03:14:37;7.53;;;4.53;;
13712;SDS011;6928;50.546;7.120;2024-01-30T03:17:03;7.13;;;5.10;;
13712;SDS011;6928;50.546;7.120;2024-01-30T03:19:30;10.23;;;5.13;;
13712;SDS011;6928;50.546;7.120;2024-01-30T03:21:58;7.65;;;4.80;;
13712;SDS011;6928;50.546;7.120;2024-01-30T03:24:25;9.20;;;4.68;;
13712;SDS011;6928;50.546;7.120;2024-01-30T03:26:53;9.32;;;4.57;;
13712;SDS011;6928;50.546;7.120;2024-01-30T03:29:20;7.00;;;4.35;;
13712;SDS011;6928;50.546;7.120;2024-01-30T03:31:48;8.55;;;4.30;;
13712;SDS011;6928;50.546;7.120;2024-01-30T03:34:15;6.93;;;4.57;;
13712;SDS011;6928;50.546;7.120;2024-01-30T03:36:42;6.63;;;4.72;;
13712;SDS011;6928;50.546;7.120;2024-01-30T03:39:08;9.65;;;4.70;;
13712;SDS011;6928;50.546;7.120;2024-01-30T03:41:35;9.05;;;4.82;;
13712;SDS011;6928;50.546;7.120;2024-01-30T03:44:02;8.07;;;4.97;;
13712;SDS011;6928;50.546;7.120;2024-01-30T03:46:29;6.82;;;4.38;;
13712;SDS011;6928;50.546;7.120;2024-01-30T03:48:57;8.30;;;4.65;;
13712;SDS011;6928;50.546;7.120;2024-01-30T03:51:24;8.88;;;5.20;;
13712;SDS011;6928;50.546;7.120;2024-01-30T03:53:51;8.65;;;4.80;;
13712;SDS011;6928;50.546;7.120;2024-01-30T03:56:18;8.05;;;4.63;;
13712;SDS011;6928;50.546;7.120;2024-01-30T03:58:44;6.90;;;4.28;;
13712;SDS011;6928;50.546;7.120;2024-01-30T04:01:13;9.45;;;5.35;;
13712;SDS011;6928;50.546;7.120;2024-01-30T04:03:40;8.80;;;4.65;;
13712;SDS011;6928;50.546;7.120;2024-01-30T04:06:08;9.85;;;4.78;;
13712;SDS011;6928;50.546;7.120;2024-01-30T04:08:35;7.32;;;5.05;;
13712;SDS011;6928;50.546;7.120;2024-01-30T04:11:03;14.65;;;5.47;;
13712;SDS011;6928;50.546;7.120;2024-01-30T04:13:31;8.23;;;5.07;;
13712;SDS011;6928;50.546;7.120;2024-01-30T04:15:58;6.43;;;4.68;;
13712;SDS011;6928;50.546;7.120;2024-01-30T04:18:27;5.43;;;3.97;;
13712;SDS011;6928;50.546;7.120;2024-01-30T04:20:54;6.60;;;4.47;;
13712;SDS011;6928;50.546;7.120;2024-01-30T04:23:22;6.18;;;4.53;;
13712;SDS011;6928;50.546;7.120;2024-01-30T04:25:49;6.75;;;4.03;;
13712;SDS011;6928;50.546;7.120;2024-01-30T04:28:16;5.35;;;4.53;;
13712;SDS011;6928;50.546;7.120;2024-01-30T04:30:42;10.73;;;5.38;;
13712;SDS011;6928;50.546;7.120;2024-01-30T04:33:10;7.32;;;5.18;;
13712;SDS011;6928;50.546;7.120;2024-01-30T04:35:37;6.82;;;4.72;;
13712;SDS011;6928;50.546;7.120;2024-01-30T04:38:04;10.65;;;4.68;;
13712;SDS011;6928;50.546;7.120;2024-01-30T04:40:32;6.72;;;4.68;;
13712;SDS011;6928;50.546;7.120;2024-01-30T04:42:59;15.88;;;9.07;;
13712;SDS011;6928;50.546;7.120;2024-01-30T04:45:26;13.52;;;7.60;;
13712;SDS011;6928;50.546;7.120;2024-01-30T04:47:53;15.30;;;5.68;;
13712;SDS011;6928;50.546;7.120;2024-01-30T04:50:19;9.38;;;5.90;;
13712;SDS011;6928;50.546;7.120;2024-01-30T04:52:46;10.70;;;5.97;;
13712;SDS011;6928;50.546;7.120;2024-01-30T04:55:13;7.20;;;5.07;;
13712;SDS011;6928;50.546;7.120;2024-01-30T04:57:42;7.10;;;5.05;;
13712;SDS011;6928;50.546;7.120;2024-01-30T05:00:09;6.53;;;4.70;;
13712;SDS011;6928;50.546;7.120;2024-01-30T05:02:37;8.82;;;5.25;;
13712;SDS011;6928;50.546;7.120;2024-01-30T05:05:04;10.35;;;5.40;;
13712;SDS011;6928;50.546;7.120;2024-01-30T05:07:32;5.72;;;4.30;;
13712;SDS011;6928;50.546;7.120;2024-01-30T05:09:59;10.52;;;5.63;;
13712;SDS011;6928;50.546;7.120;2024-01-30T05:12:26;7.93;;;4.43;;
13712;SDS011;6928;50.546;7.120;2024-01-30T05:14:54;6.13;;;4.30;;
13712;SDS011;6928;50.546;7.120;2024-01-30T05:17:21;6.20;;;4.75;;
13712;SDS011;6928;50.546;7.120;2024-01-30T05:19:47;8.40;;;5.28;;
13712;SDS011;6928;50.546;7.120;2024-01-30T05:22:14;6.65;;;4.85;;
13712;SDS011;6928;50.546;7.120;2024-01-30T05:24:43;7.32;;;4.35;;
13712;SDS011;6928;50.546;7.120;2024-01-30T05:27:10;8.30;;;4.55;;
13712;SDS011;6928;50.546;7.120;2024-01-30T05:29:38;11.10;;;5.15;;
13712;SDS011;6928;50.546;7.120;2024-01-30T05:32:06;12.20;;;4.40;;
13712;SDS011;6928;50.546;7.120;2024-01-30T05:34:33;10.05;;;4.38;;
13712;SDS011;6928;50.546;7.120;2024-01-30T05:37:01;7.75;;;4.63;;
13712;SDS011;6928;50.546;7.120;2024-01-30T05:39:28;10.32;;;4.85;;
13712;SDS011;6928;50.546;7.120;2024-01-30T05:41:57;7.68;;;4.93;;
13712;SDS011;6928;50.546;7.120;2024-01-30T05:44:25;9.70;;;5.75;;
13712;SDS011;6928;50.546;7.120;2024-01-30T05:46:51;10.63;;;4.78;;
13712;SDS011;6928;50.546;7.120;2024-01-30T05:49:20;5.60;;;4.47;;
13712;SDS011;6928;50.546;7.120;2024-01-30T05:51:46;6.88;;;4.53;;
13712;SDS011;6928;50.546;7.120;2024-01-30T05:54:13;11.30;;;5.70;;
13712;SDS011;6928;50.546;7.120;2024-01-30T05:56:40;9.98;;;5.53;;
13712;SDS011;6928;50.546;7.120;2024-01-30T05:59:07;10.25;;;5.30;;
13712;SDS011;6928;50.546;7.120;2024-01-30T06:01:34;5.68;;;4.53;;
13712;SDS011;6928;50.546;7.120;2024-01-30T06:04:00;7.10;;;4.82;;
13712;SDS011;6928;50.546;7.120;2024-01-30T06:06:29;8.73;;;4.82;;
13712;SDS011;6928;50.546;7.120;2024-01-30T06:08:55;7.13;;;5.00;;
13712;SDS011;6928;50.546;7.120;2024-01-30T06:11:22;9.98;;;5.20;;
13712;SDS011;6928;50.546;7.120;2024-01-30T06:13:49;8.25;;;4.93;;
13712;SDS011;6928;50.546;7.120;2024-01-30T06:16:15;7.65;;;5.18;;
13712;SDS011;6928;50.546;7.120;2024-01-30T06:18:42;12.38;;;6.13;;
13712;SDS011;6928;50.546;7.120;2024-01-30T06:21:09;9.43;;;5.47;;
13712;SDS011;6928;50.546;7.120;2024-01-30T06:23:37;8.80;;;5.50;;
13712;SDS011;6928;50.546;7.120;2024-01-30T06:26:04;12.10;;;5.50;;
13712;SDS011;6928;50.546;7.120;2024-01-30T06:28:32;9.63;;;5.30;;
13712;SDS011;6928;50.546;7.120;2024-01-30T06:31:00;10.52;;;6.00;;
13712;SDS011;6928;50.546;7.120;2024-01-30T06:33:27;11.05;;;5.95;;
13712;SDS011;6928;50.546;7.120;2024-01-30T06:35:54;8.07;;;5.25;;
13712;SDS011;6928;50.546;7.120;2024-01-30T06:38:20;12.77;;;6.22;;
13712;SDS011;6928;50.546;7.120;2024-01-30T06:40:49;13.75;;;7.25;;
13712;SDS011;6928;50.546;7.120;2024-01-30T06:43:15;9.07;;;5.55;;
13712;SDS011;6928;50.546;7.120;2024-01-30T06:45:42;13.35;;;5.70;;
13712;SDS011;6928;50.546;7.120;2024-01-30T06:48:09;10.88;;;6.25;;
13712;SDS011;6928;50.546;7.120;2024-01-30T06:50:36;10.98;;;5.93;;
13712;SDS011;6928;50.546;7.120;2024-01-30T06:53:02;12.63;;;6.60;;
13712;SDS011;6928;50.546;7.120;2024-01-30T06:55:30;11.68;;;6.40;;
13712;SDS011;6928;50.546;7.120;2024-01-30T06:57:58;11.93;;;7.32;;
13712;SDS011;6928;50.546;7.120;2024-01-30T07:00:24;10.52;;;6.45;;
13712;SDS011;6928;50.546;7.120;2024-01-30T07:02:51;10.57;;;5.82;;
13712;SDS011;6928;50.546;7.120;2024-01-30T07:05:18;12.10;;;6.32;;
13712;SDS011;6928;50.546;7.120;2024-01-30T07:07:46;14.63;;;6.32;;
13712;SDS011;6928;50.546;7.120;2024-01-30T07:10:13;12.18;;;6.03;;
13712;SDS011;6928;50.546;7.120;2024-01-30T07:12:40;13.15;;;6.57;;
13712;SDS011;6928;50.546;7.120;2024-01-30T07:15:09;11.35;;;6.20;;
13712;SDS011;6928;50.546;7.120;2024-01-30T07:17:36;16.83;;;8.43;;
13712;SDS011;6928;50.546;7.120;2024-01-30T07:20:03;26.38;;;10.27;;
13712;SDS011;6928;50.546;7.120;2024-01-30T07:22:32;14.02;;;7.20;;
13712;SDS011;6928;50.546;7.120;2024-01-30T07:24:59;14.43;;;7.70;;
13712;SDS011;6928;50.546;7.120;2024-01-30T07:27:26;17.42;;;7.13;;
13712;SDS011;6928;50.546;7.120;2024-01-30T07:29:55;10.15;;;6.13;;
13712;SDS011;6928;50.546;7.120;2024-01-30T07:32:23;13.43;;;6.50;;
13712;SDS011;6928;50.546;7.120;2024-01-30T07:34:50;12.00;;;6.35;;
13712;SDS011;6928;50.546;7.120;2024-01-30T07:37:17;13.10;;;6.65;;
13712;SDS011;6928;50.546;7.120;2024-01-30T07:39:44;14.25;;;6.63;;
13712;SDS011;6928;50.546;7.120;2024-01-30T07:42:11;12.77;;;7.10;;
13712;SDS011;6928;50.546;7.120;2024-01-30T07:44:38;8.52;;;6.45;;
13712;SDS011;6928;50.546;7.120;2024-01-30T07:47:05;10.07;;;5.53;;
13712;SDS011;6928;50.546;7.120;2024-01-30T07:49:34;11.00;;;6.30;;
13712;SDS011;6928;50.546;7.120;2024-01-30T07:52:01;8.15;;;5.57;;
13712;SDS011;6928;50.546;7.120;2024-01-30T07:54:28;10.25;;;5.85;;
13712;SDS011;6928;50.546;7.120;2024-01-30T07:56:58;12.93;;;6.65;;
13712;SDS011;6928;50.546;7.120;2024-01-30T07:59:25;15.07;;;7.68;;
13712;SDS011;6928;50.546;7.120;2024-01-30T08:01:52;14.15;;;7.30;;
13712;SDS011;6928;50.546;7.120;2024-01-30T08:04:18;21.20;;;9.25;;
13712;SDS011;6928;50.546;7.120;2024-01-30T08:06:46;18.67;;;9.23;;
13712;SDS011;6928;50.546;7.120;2024-01-30T08:09:13;12.02;;;7.80;;
13712;SDS011;6928;50.546;7.120;2024-01-30T08:11:40;20.88;;;8.15;;
13712;SDS011;6928;50.546;7.120;2024-01-30T08:14:07;11.50;;;6.93;;
13712;SDS011;6928;50.546;7.120;2024-01-30T08:16:34;12.30;;;7.40;;
13712;SDS011;6928;50.546;7.120;2024-01-30T08:19:01;12.23;;;7.30;;
13712;SDS011;6928;50.546;7.120;2024-01-30T08:21:29;16.73;;;6.75;;
13712;SDS011;6928;50.546;7.120;2024-01-30T08:24:02;14.75;;;6.75;;
13712;SDS011;6928;50.546;7.120;2024-01-30T08:26:29;13.23;;;7.18;;
13712;SDS011;6928;50.546;7.120;2024-01-30T08:28:56;10.77;;;6.90;;
13712;SDS011;6928;50.546;7.120;2024-01-30T08:31:23;18.10;;;7.45;;
13712;SDS011;6928;50.546;7.120;2024-01-30T08:33:50;13.80;;;8.35;;
13712;SDS011;6928;50.546;7.120;2024-01-30T08:36:17;14.35;;;8.93;;
13712;SDS011;6928;50.546;7.120;2024-01-30T08:38:45;15.18;;;8.27;;
13712;SDS011;6928;50.546;7.120;2024-01-30T08:41:13;15.65;;;8.80;;
13712;SDS011;6928;50.546;7.120;2024-01-30T08:43:40;19.02;;;8.85;;
13712;SDS011;6928;50.546;7.120;2024-01-30T08:46:07;21.17;;;9.13;;
13712;SDS011;6928;50.546;7.120;2024-01-30T08:48:34;16.02;;;7.93;;
13712;SDS011;6928;50.546;7.120;2024-01-30T08:51:02;17.40;;;8.82;;
13712;SDS011;6928;50.546;7.120;2024-01-30T08:53:33;16.73;;;7.90;;
13712;SDS011;6928;50.546;7.120;2024-01-30T08:56:01;13.95;;;8.43;;
13712;SDS011;6928;50.546;7.120;2024-01-30T08:58:29;13.93;;;7.95;;
13712;SDS011;6928;50.546;7.120;2024-01-30T09:00:56;12.13;;;7.40;;
13712;SDS011;6928;50.546;7.120;2024-01-30T09:03:23;15.43;;;7.53;;
13712;SDS011;6928;50.546;7.120;2024-01-30T09:05:50;16.83;;;9.15;;
13712;SDS011;6928;50.546;7.120;2024-01-30T09:08:16;15.32;;;9.05;;
13712;SDS011;6928;50.546;7.120;2024-01-30T09:10:43;18.92;;;9.50;;
13712;SDS011;6928;50.546;7.120;2024-01-30T09:13:10;18.20;;;10.93;;
13712;SDS011;6928;50.546;7.120;2024-01-30T09:15:38;19.42;;;10.32;;
13712;SDS011;6928;50.546;7.120;2024-01-30T09:18:06;23.13;;;10.18;;
13712;SDS011;6928;50.546;7.120;2024-01-30T09:20:33;17.13;;;10.23;;
13712;SDS011;6928;50.546;7.120;2024-01-30T09:22:59;19.08;;;10.80;;
13712;SDS011;6928;50.546;7.120;2024-01-30T09:25:26;20.17;;;10.20;;
13712;SDS011;6928;50.546;7.120;2024-01-30T09:27:53;22.83;;;10.77;;
13712;SDS011;6928;50.546;7.120;2024-01-30T09:30:20;16.50;;;9.75;;
13712;SDS011;6928;50.546;7.120;2024-01-30T09:32:48;21.38;;;9.40;;
13712;SDS011;6928;50.546;7.120;2024-01-30T09:35:15;20.55;;;10.48;;
13712;SDS011;6928;50.546;7.120;2024-01-30T09:37:42;22.92;;;11.23;;
13712;SDS011;6928;50.546;7.120;2024-01-30T09:40:09;21.52;;;11.45;;
13712;SDS011;6928;50.546;7.120;2024-01-30T09:42:36;16.52;;;10.80;;
13712;SDS011;6928;50.546;7.120;2024-01-30T09:45:03;18.45;;;10.00;;
13712;SDS011;6928;50.546;7.120;2024-01-30T09:47:32;27.23;;;9.77;;
13712;SDS011;6928;50.546;7.120;2024-01-30T09:50:04;20.13;;;9.90;;
13712;SDS011;6928;50.546;7.120;2024-01-30T09:52:33;11.90;;;8.77;;
13712;SDS011;6928;50.546;7.120;2024-01-30T09:55:00;16.63;;;10.13;;
13712;SDS011;6928;50.546;7.120;2024-01-30T09:57:27;14.88;;;9.48;;
13712;SDS011;6928;50.546;7.120;2024-01-30T09:59:55;18.00;;;10.70;;
13712;SDS011;6928;50.546;7.120;2024-01-30T10:02:24;14.93;;;9.60;;
13712;SDS011;6928;50.546;7.120;2024-01-30T10:04:51;19.92;;;9.38;;
13712;SDS011;6928;50.546;7.120;2024-01-30T10:07:20;15.13;;;9.73;;
13712;SDS011;6928;50.546;7.120;2024-01-30T10:09:47;18.30;;;9.55;;
13712;SDS011;6928;50.546;7.120;2024-01-30T10:12:14;14.35;;;8.98;;
13712;SDS011;6928;50.546;7.120;2024-01-30T10:14:41;14.75;;;8.75;;
13712;SDS011;6928;50.546;7.120;2024-01-30T10:17:09;14.20;;;8.48;;
13712;SDS011;6928;50.546;7.120;2024-01-30T10:19:38;14.13;;;8.05;;
13712;SDS011;6928;50.546;7.120;2024-01-30T10:22:06;16.15;;;9.30;;
13712;SDS011;6928;50.546;7.120;2024-01-30T10:24:35;15.63;;;8.57;;
13712;SDS011;6928;50.546;7.120;2024-01-30T10:27:05;13.07;;;8.65;;
13712;SDS011;6928;50.546;7.120;2024-01-30T10:29:32;13.38;;;8.35;;
13712;SDS011;6928;50.546;7.120;2024-01-30T10:32:00;15.50;;;8.27;;
13712;SDS011;6928;50.546;7.120;2024-01-30T10:34:27;14.30;;;7.75;;
13712;SDS011;6928;50.546;7.120;2024-01-30T10:36:59;13.20;;;7.50;;
13712;SDS011;6928;50.546;7.120;2024-01-30T10:39:39;18.13;;;9.07;;
13712;SDS011;6928;50.546;7.120;2024-01-30T10:42:06;14.55;;;8.27;;
13712;SDS011;6928;50.546;7.120;2024-01-30T10:44:43;11.20;;;7.68;;
13712;SDS011;6928;50.546;7.120;2024-01-30T10:47:14;14.82;;;7.40;;
13712;SDS011;6928;50.546;7.120;2024-01-30T10:49:48;14.70;;;7.60;;
13712;SDS011;6928;50.546;7.120;2024-01-30T10:52:17;12.00;;;8.13;;
13712;SDS011;6928;50.546;7.120;2024-01-30T10:54:47;12.65;;;6.70;;
13712;SDS011;6928;50.546;7.120;2024-01-30T10:57:16;9.68;;;7.00;;
13712;SDS011;6928;50.546;7.120;2024-01-30T10:59:43;12.00;;;8.27;;
13712;SDS011;6928;50.546;7.120;2024-01-30T11:02:12;11.02;;;6.88;;
13712;SDS011;6928;50.546;7.120;2024-01-30T11:04:40;10.85;;;7.68;;
13712;SDS011;6928;50.546;7.120;2024-01-30T11:07:14;13.50;;;7.57;;
13712;SDS011;6928;50.546;7.120;2024-01-30T11:09:49;15.45;;;8.52;;
13712;SDS011;6928;50.546;7.120;2024-01-30T11:12:21;12.80;;;8.05;;
13712;SDS011;6928;50.546;7.120;2024-01-30T11:14:48;14.70;;;8.48;;
13712;SDS011;6928;50.546;7.120;2024-01-30T11:17:16;9.77;;;7.15;;
13712;SDS011;6928;50.546;7.120;2024-01-30T11:19:43;14.43;;;7.35;;
13712;SDS011;6928;50.546;7.120;2024-01-30T11:22:12;12.55;;;7.13;;
13712;SDS011;6928;50.546;7.120;2024-01-30T11:24:39;11.85;;;7.05;;
13712;SDS011;6928;50.546;7.120;2024-01-30T11:27:09;13.90;;;7.60;;
13712;SDS011;6928;50.546;7.120;2024-01-30T11:29:36;10.82;;;6.88;;
13712;SDS011;6928;50.546;7.120;2024-01-30T11:32:03;9.32;;;6.93;;
13712;SDS011;6928;50.546;7.120;2024-01-30T11:34:32;13.68;;;7.30;;
13712;SDS011;6928;50.546;7.120;2024-01-30T11:37:02;19.45;;;7.07;;
13712;SDS011;6928;50.546;7.120;2024-01-30T11:39:32;9.65;;;6.32;;
13712;SDS011;6928;50.546;7.120;2024-01-30T11:41:59;13.85;;;7.30;;
13712;SDS011;6928;50.546;7.120;2024-01-30T11:44:27;8.18;;;6.35;;
13712;SDS011;6928;50.546;7.120;2024-01-30T11:46:54;9.35;;;7.07;;
13712;SDS011;6928;50.546;7.120;2024-01-30T11:49:21;10.35;;;6.35;;
13712;SDS011;6928;50.546;7.120;2024-01-30T11:51:49;12.60;;;6.28;;
13712;SDS011;6928;50.546;7.120;2024-01-30T11:54:16;12.30;;;7.25;;
13712;SDS011;6928;50.546;7.120;2024-01-30T11:56:42;15.88;;;7.13;;
13712;SDS011;6928;50.546;7.120;2024-01-30T11:59:09;9.00;;;5.70;;
13712;SDS011;6928;50.546;7.120;2024-01-30T12:01:37;9.93;;;6.70;;
13712;SDS011;6928;50.546;7.120;2024-01-30T12:04:04;12.18;;;7.03;;
13712;SDS011;6928;50.546;7.120;2024-01-30T12:06:34;13.15;;;6.90;;
13712;SDS011;6928;50.546;7.120;2024-01-30T12:09:01;9.05;;;6.28;;
13712;SDS011;6928;50.546;7.120;2024-01-30T12:11:30;13.98;;;7.15;;
13712;SDS011;6928;50.546;7.120;2024-01-30T12:13:57;11.23;;;7.30;;
13712;SDS011;6928;50.546;7.120;2024-01-30T12:16:24;10.27;;;6.45;;
13712;SDS011;6928;50.546;7.120;2024-01-30T12:19:00;14.15;;;7.68;;
13712;SDS011;6928;50.546;7.120;2024-01-30T12:21:27;12.65;;;7.22;;
13712;SDS011;6928;50.546;7.120;2024-01-30T12:23:54;10.23;;;6.30;;
13712;SDS011;6928;50.546;7.120;2024-01-30T12:26:21;13.35;;;6.97;;
13712;SDS011;6928;50.546;7.120;2024-01-30T12:28:48;15.50;;;7.00;;
13712;SDS011;6928;50.546;7.120;2024-01-30T12:31:16;8.02;;;6.65;;
13712;SDS011;6928;50.546;7.120;2024-01-30T12:33:42;9.60;;;6.85;;
13712;SDS011;6928;50.546;7.120;2024-01-30T12:36:11;10.90;;;6.63;;
13712;SDS011;6928;50.546;7.120;2024-01-30T12:38:38;9.40;;;6.53;;
13712;SDS011;6928;50.546;7.120;2024-01-30T12:41:06;8.60;;;6.25;;
13712;SDS011;6928;50.546;7.120;2024-01-30T12:43:35;8.82;;;6.40;;
13712;SDS011;6928;50.546;7.120;2024-01-30T12:46:02;16.20;;;6.63;;
13712;SDS011;6928;50.546;7.120;2024-01-30T12:48:29;10.18;;;6.93;;
13712;SDS011;6928;50.546;7.120;2024-01-30T12:50:56;11.75;;;6.45;;
13712;SDS011;6928;50.546;7.120;2024-01-30T12:53:24;13.00;;;7.00;;
13712;SDS011;6928;50.546;7.120;2024-01-30T12:55:51;19.02;;;7.40;;
13712;SDS011;6928;50.546;7.120;2024-01-30T12:58:19;11.68;;;6.93;;
13712;SDS011;6928;50.546;7.120;2024-01-30T13:00:46;12.50;;;6.72;;
13712;SDS011;6928;50.546;7.120;2024-01-30T13:03:13;15.38;;;7.45;;
13712;SDS011;6928;50.546;7.120;2024-01-30T13:05:40;10.00;;;6.93;;
13712;SDS011;6928;50.546;7.120;2024-01-30T13:08:06;16.73;;;7.13;;
13712;SDS011;6928;50.546;7.120;2024-01-30T13:10:34;17.48;;;7.22;;
13712;SDS011;6928;50.546;7.120;2024-01-30T13:13:01;8.55;;;5.95;;
13712;SDS011;6928;50.546;7.120;2024-01-30T13:15:28;8.57;;;6.55;;
13712;SDS011;6928;50.546;7.120;2024-01-30T13:17:55;8.13;;;6.00;;
13712;SDS011;6928;50.546;7.120;2024-01-30T13:20:21;8.05;;;5.65;;
13712;SDS011;6928;50.546;7.120;2024-01-30T13:22:48;8.48;;;5.80;;
13712;SDS011;6928;50.546;7.120;2024-01-30T13:25:15;11.63;;;6.38;;
13712;SDS011;6928;50.546;7.120;2024-01-30T13:27:43;10.43;;;6.63;;
13712;SDS011;6928;50.546;7.120;2024-01-30T13:30:10;14.38;;;6.93;;
13712;SDS011;6928;50.546;7.120;2024-01-30T13:32:37;12.70;;;7.10;;
13712;SDS011;6928;50.546;7.120;2024-01-30T13:35:06;12.40;;;7.50;;
13712;SDS011;6928;50.546;7.120;2024-01-30T13:37:33;12.63;;;6.68;;
13712;SDS011;6928;50.546;7.120;2024-01-30T13:39:59;12.90;;;7.22;;
13712;SDS011;6928;50.546;7.120;2024-01-30T13:42:27;11.82;;;7.00;;
13712;SDS011;6928;50.546;7.120;2024-01-30T13:44:55;13.55;;;7.13;;
13712;SDS011;6928;50.546;7.120;2024-01-30T13:47:21;10.10;;;6.03;;
13712;SDS011;6928;50.546;7.120;2024-01-30T13:49:48;10.45;;;6.55;;
13712;SDS011;6928;50.546;7.120;2024-01-30T13:52:15;10.93;;;6.80;;
13712;SDS011;6928;50.546;7.120;2024-01-30T13:54:42;10.32;;;6.68;;
13712;SDS011;6928;50.546;7.120;2024-01-30T13:57:09;12.68;;;8.27;;
13712;SDS011;6928;50.546;7.120;2024-01-30T13:59:35;13.90;;;6.80;;
13712;SDS011;6928;50.546;7.120;2024-01-30T14:02:05;11.85;;;6.18;;
13712;SDS011;6928;50.546;7.120;2024-01-30T14:04:33;10.10;;;6.15;;
13712;SDS011;6928;50.546;7.120;2024-01-30T14:07:02;8.43;;;6.90;;
13712;SDS011;6928;50.546;7.120;2024-01-30T14:09:28;11.63;;;6.72;;
13712;SDS011;6928;50.546;7.120;2024-01-30T14:11:57;9.27;;;5.95;;
13712;SDS011;6928;50.546;7.120;2024-01-30T14:14:23;11.93;;;5.88;;
13712;SDS011;6928;50.546;7.120;2024-01-30T14:16:50;10.98;;;7.07;;
13712;SDS011;6928;50.546;7.120;2024-01-30T14:19:18;9.70;;;6.80;;
13712;SDS011;6928;50.546;7.120;2024-01-30T14:21:45;12.27;;;5.97;;
13712;SDS011;6928;50.546;7.120;2024-01-30T14:24:12;9.07;;;6.25;;
13712;SDS011;6928;50.546;7.120;2024-01-30T14:26:39;10.23;;;5.90;;
13712;SDS011;6928;50.546;7.120;2024-01-30T14:29:06;11.82;;;6.93;;
13712;SDS011;6928;50.546;7.120;2024-01-30T14:31:33;13.07;;;6.97;;
13712;SDS011;6928;50.546;7.120;2024-01-30T14:33:59;12.52;;;7.07;;
13712;SDS011;6928;50.546;7.120;2024-01-30T14:36:28;13.38;;;6.43;;
13712;SDS011;6928;50.546;7.120;2024-01-30T14:38:55;11.50;;;6.38;;
13712;SDS011;6928;50.546;7.120;2024-01-30T14:41:21;10.57;;;6.68;;
13712;SDS011;6928;50.546;7.120;2024-01-30T14:43:48;9.27;;;7.20;;
13712;SDS011;6928;50.546;7.120;2024-01-30T14:46:15;13.52;;;6.95;;
13712;SDS011;6928;50.546;7.120;2024-01-30T14:48:42;10.57;;;6.22;;
13712;SDS011;6928;50.546;7.120;2024-01-30T14:51:09;11.13;;;7.00;;
13712;SDS011;6928;50.546;7.120;2024-01-30T14:53:37;15.00;;;8.48;;